Chicago, Illinois
Traffic Map
Current Weather Conditions
Chicago, Illinois
Scattered Clouds
Scattered Clouds
30°
Feels Like: 31°
Wind Chill: 30° Ceiling: Unl
Heat Index: 31° Visibility: 10mi
Dew Point: 18° Wind: 13mph
Humidity: 48% Direction: 100° (E)
Pressure: 30.02in Gusts: 0mph
Raw Report DataKMDW 261953Z 10011KT 10SM SCT060 30/18 A3002 RMK AO2 SLP152 T03000178
Traffic Incident Summary
Active as of:
Severity:
Category:
InformationThere was an issue retrieving the traffic information for this location. Please try a different location or try again shortly.
Advertisements
Track Severe Weather on mobile